Time;durP1;ratioP1;P1;durP2;ratioP2;P2;SDS_P1;SDS_P2;PMS_P1;PMS_P2;Temp;Humidity;BMP_temperature;BMP_pressure;BME280_temperature;BME280_humidity;BME280_pressure;Samples;Min_cycle;Max_cycle;Signal;HPM_P1;HPM_P2
2024/01/03 00:01:32;;;;;;;;;;;;;;;9.12;100.00;150966.34;13054114;22;20011;-81
2024/01/03 00:06:35;;;;;;;0.17;0.05;;;;;;;9.26;100.00;151001.16;13077005;22;19930;-81
2024/01/03 00:11:37;;;;;;;0.10;0.00;;;;;;;9.38;100.00;151030.81;13078593;22;20091;-82
2024/01/03 00:16:39;;;;;;;0.28;0.00;;;;;;;9.46;100.00;151052.75;13079003;22;20019;-81
2024/01/03 00:21:41;;;;;;;0.00;0.00;;;;;;;9.57;100.00;151081.13;13094084;22;20352;-80
2024/01/03 00:26:43;;;;;;;0.38;0.00;;;;;;;9.48;100.00;151057.94;13108558;22;20011;-81
2024/01/03 00:31:46;;;;;;;0.00;0.00;;;;;;;9.51;100.00;151064.34;13087063;22;20015;-81
2024/01/03 00:36:48;;;;;;;0.10;0.00;;;;;;;9.53;100.00;151069.53;13086175;22;20039;-81
2024/01/03 00:41:50;;;;;;;0.00;0.00;;;;;;;9.69;100.00;151109.50;13084848;22;20007;-81
2024/01/03 00:46:55;;;;;;;0.13;0.10;;;;;;;9.68;100.00;151108.22;13091558;22;20027;-79
2024/01/03 00:51:58;;;;;;;0.17;0.10;;;;;;;9.42;100.00;151041.13;13061059;22;20015;-83
2024/01/03 00:57:01;;;;;;;0.00;0.00;;;;;;;9.72;100.00;151118.53;13060458;22;20022;-81
2024/01/03 01:02:03;;;;;;;0.00;0.00;;;;;;;9.61;100.00;151090.19;13058201;22;20059;-81
2024/01/03 01:07:05;;;;;;;0.00;0.00;;;;;;;9.60;100.00;151088.84;13054647;22;20019;-81
2024/01/03 01:12:07;;;;;;;0.03;0.00;;;;;;;9.70;100.00;151113.41;13082653;22;20067;-83
2024/01/03 01:17:08;;;;;;;0.08;0.00;;;;;;;9.77;100.00;151130.16;13052695;22;20453;-82
2024/01/03 01:22:10;;;;;;;0.00;0.00;;;;;;;9.88;99.34;151158.56;13027402;22;20023;-82
2024/01/03 01:27:12;;;;;;;0.00;0.00;;;;;;;9.91;98.06;151166.28;13082419;22;20030;-82
2024/01/03 01:32:13;;;;;;;0.00;0.00;;;;;;;9.92;97.58;151168.91;13052780;22;20019;-82
2024/01/03 01:37:15;;;;;;;1.08;0.00;;;;;;;9.77;99.60;151130.16;13079042;22;20031;-82
2024/01/03 01:42:17;;;;;;;0.00;0.00;;;;;;;9.95;97.83;151176.59;13078019;22;20036;-83
2024/01/03 01:47:20;;;;;;;0.00;0.00;;;;;;;10.03;96.80;151197.25;13050013;22;20030;-82
2024/01/03 01:52:22;;;;;;;0.17;0.00;;;;;;;9.94;98.04;151174.03;13077471;22;20019;-82
2024/01/03 01:57:24;;;;;;;0.20;0.10;;;;;;;9.99;97.32;151186.94;13051704;22;20019;-81
2024/01/03 02:02:26;;;;;;;0.30;0.08;;;;;;;10.04;97.18;151199.84;13050442;22;20019;-82
2024/01/03 02:07:30;;;;;;;0.05;0.00;;;;;;;10.08;95.75;151208.88;13079899;22;20057;-81
2024/01/03 02:12:32;;;;;;;0.00;0.00;;;;;;;10.02;95.60;151194.69;13056851;22;20023;-83
2024/01/03 02:17:38;;;;;;;0.00;0.00;;;;;;;10.19;92.57;151236.00;13054249;22;20038;-82
2024/01/03 02:22:39;;;;;;;0.00;0.00;;;;;;;9.98;93.75;151184.38;13091670;22;20070;-81
2024/01/03 02:27:41;;;;;;;0.00;0.00;;;;;;;9.91;94.53;151165.00;13084697;22;20019;-82
2024/01/03 02:32:43;;;;;;;0.28;0.10;;;;;;;9.84;94.43;151149.53;13060159;22;20075;-81
2024/01/03 02:37:45;;;;;;;0.40;0.10;;;;;;;9.97;93.28;151180.50;13050897;22;20038;-83
2024/01/03 02:42:46;;;;;;;0.10;0.10;;;;;;;10.05;92.90;151202.44;13078575;22;20015;-81
2024/01/03 02:47:48;;;;;;;0.00;0.00;;;;;;;10.02;92.99;151193.41;13078183;22;20015;-83
2024/01/03 02:52:50;;;;;;;0.63;0.00;;;;;;;9.93;93.85;151170.19;13079414;22;20015;-83
2024/01/03 02:57:52;;;;;;;0.10;0.08;;;;;;;10.13;92.23;151220.50;13087866;22;20022;-82
2024/01/03 03:02:53;;;;;;;0.30;0.03;;;;;;;10.31;89.42;151267.00;13074700;22;20019;-82
2024/01/03 03:07:55;;;;;;;0.08;0.05;;;;;;;10.24;89.34;151248.91;13084106;22;20019;-82
2024/01/03 03:12:57;;;;;;;0.00;0.00;;;;;;;10.07;90.21;151207.59;13083120;22;20019;-82
2024/01/03 03:18:00;;;;;;;0.00;0.00;;;;;;;10.02;90.88;151194.69;13078940;22;20011;-81
2024/01/03 03:23:02;;;;;;;0.47;0.10;;;;;;;10.15;89.82;151225.69;13024839;22;20047;-82
2024/01/03 03:28:07;;;;;;;0.08;0.08;;;;;;;10.03;90.58;151197.25;13076971;22;20019;-82
2024/01/03 03:33:10;;;;;;;0.10;0.10;;;;;;;10.07;90.27;151207.59;13048043;22;20446;-81
2024/01/03 03:38:12;;;;;;;0.43;0.17;;;;;;;10.11;89.33;151216.63;13076353;22;20018;-81
2024/01/03 03:43:14;;;;;;;0.03;0.03;;;;;;;10.12;88.72;151219.22;13079643;22;20046;-81
2024/01/03 03:48:15;;;;;;;0.70;0.10;;;;;;;10.16;87.83;151228.25;13079165;22;20033;-81
2024/01/03 03:53:18;;;;;;;0.00;0.00;;;;;;;10.05;87.58;151202.44;13051584;22;20019;-81
2024/01/03 03:58:20;;;;;;;0.08;0.00;;;;;;;10.10;87.17;151215.34;13074395;22;20015;-81
2024/01/03 04:03:22;;;;;;;0.10;0.10;;;;;;;10.10;85.99;151215.34;13047638;22;20330;-81
2024/01/03 04:08:23;;;;;;;0.00;0.00;;;;;;;10.07;85.44;151206.31;13047127;22;20507;-81
2024/01/03 04:13:25;;;;;;;1.02;0.00;;;;;;;10.00;85.18;151189.50;13073861;22;20022;-81
2024/01/03 04:18:27;;;;;;;0.30;0.10;;;;;;;10.03;84.15;151197.25;13073895;22;20396;-81
2024/01/03 04:23:29;;;;;;;0.13;0.10;;;;;;;10.04;83.69;151198.53;13047176;22;20045;-81
2024/01/03 04:28:31;;;;;;;0.40;0.05;;;;;;;10.02;83.12;151194.69;13086367;22;20022;-81
2024/01/03 04:33:33;;;;;;;0.20;0.10;;;;;;;9.87;84.39;151155.94;13099546;22;20034;-82
2024/01/03 04:38:34;;;;;;;0.15;0.00;;;;;;;9.82;85.55;151144.34;13097786;22;20015;-81
2024/01/03 04:43:36;;;;;;;0.00;0.00;;;;;;;9.75;84.88;151126.31;13093562;22;20019;-81
2024/01/03 04:48:38;;;;;;;0.05;0.00;;;;;;;9.87;83.69;151155.94;13072937;22;20511;-81
2024/01/03 04:53:40;;;;;;;0.32;0.13;;;;;;;9.74;84.11;151122.41;13072851;22;20540;-81
2024/01/03 04:58:42;;;;;;;0.10;0.10;;;;;;;9.80;82.76;151137.91;13087243;22;20018;-81
2024/01/03 05:03:44;;;;;;;0.25;0.10;;;;;;;9.99;80.42;151186.94;13075785;22;20035;-81
2024/01/03 05:08:45;;;;;;;0.43;0.05;;;;;;;9.93;81.07;151170.19;13055375;22;20011;-82
2024/01/03 05:13:47;;;;;;;0.15;0.05;;;;;;;9.68;82.64;151106.94;13082045;22;20019;-81
2024/01/03 05:18:49;;;;;;;0.00;0.00;;;;;;;9.67;82.66;151104.38;13107086;22;20054;-81
2024/01/03 05:23:51;;;;;;;0.20;0.10;;;;;;;9.79;81.69;151135.34;13113464;22;20018;-79
2024/01/03 05:28:53;;;;;;;0.28;0.10;;;;;;;9.93;80.83;151170.19;13110927;22;20020;-81
2024/01/03 05:33:54;;;;;;;0.20;0.10;;;;;;;9.73;82.08;151119.81;13084965;22;20019;-81
2024/01/03 05:38:56;;;;;;;0.20;0.10;;;;;;;9.68;82.35;151108.22;13068908;22;20023;-81
2024/01/03 05:43:58;;;;;;;0.40;0.10;;;;;;;9.70;82.85;151112.13;13085255;22;20441;-82
2024/01/03 05:49:00;;;;;;;0.00;0.00;;;;;;;9.73;83.00;151119.81;13087579;22;20019;-82
2024/01/03 05:54:02;;;;;;;0.00;0.00;;;;;;;9.67;84.75;151105.66;13083668;22;20015;-82
2024/01/03 05:59:04;;;;;;;0.00;0.00;;;;;;;9.75;85.35;151126.31;13084890;22;20031;-82
2024/01/03 06:04:05;;;;;;;0.00;0.00;;;;;;;9.76;86.09;151127.59;13086873;22;20015;-82
2024/01/03 06:09:07;;;;;;;0.43;0.10;;;;;;;9.68;86.45;151108.22;13054838;22;20015;-82
2024/01/03 06:14:09;;;;;;;0.20;0.10;;;;;;;9.67;87.06;151104.38;13086253;22;20015;-82
2024/01/03 06:19:13;;;;;;;0.38;0.17;;;;;;;9.74;85.99;151122.41;13084208;22;20033;-83
2024/01/03 06:24:15;;;;;;;0.10;0.00;;;;;;;9.71;85.72;151115.97;13084504;22;20018;-83
2024/01/03 06:29:17;;;;;;;1.85;0.10;;;;;;;9.66;85.60;151103.09;13085108;22;20011;-80
2024/01/03 06:34:19;;;;;;;0.10;0.08;;;;;;;9.67;84.89;151105.66;13079949;22;20094;-83
2024/01/03 06:39:21;;;;;;;0.10;0.10;;;;;;;9.81;82.37;151140.47;13080538;22;20019;-83
2024/01/03 06:44:23;;;;;;;0.35;0.15;;;;;;;9.73;82.74;151119.81;13088107;22;20457;-83
2024/01/03 06:49:25;;;;;;;0.70;0.10;;;;;;;9.88;81.26;151157.28;13085456;22;20015;-82
2024/01/03 06:54:27;;;;;;;0.82;0.22;;;;;;;9.84;80.90;151148.25;13057570;22;20030;-83
2024/01/03 06:59:29;;;;;;;0.52;0.15;;;;;;;9.75;80.99;151125.00;13085601;22;20011;-82
2024/01/03 07:04:30;;;;;;;0.10;0.10;;;;;;;9.77;80.37;151130.16;13086297;22;20070;-81
2024/01/03 07:09:32;;;;;;;1.23;0.30;;;;;;;9.76;80.36;151127.59;13089349;22;20015;-81
2024/01/03 07:14:34;;;;;;;1.85;0.15;;;;;;;9.67;80.54;151104.38;13055973;22;20043;-81
2024/01/03 07:19:36;;;;;;;0.70;0.20;;;;;;;9.55;81.44;151075.94;13081140;22;20027;-82
2024/01/03 07:24:38;;;;;;;0.65;0.30;;;;;;;9.56;80.81;151077.25;13026322;22;20026;-81
2024/01/03 07:29:41;;;;;;;0.45;0.10;;;;;;;9.63;80.23;151095.31;13082905;22;20030;-82
2024/01/03 07:34:42;;;;;;;0.43;0.30;;;;;;;9.81;79.27;151140.47;13077398;22;20054;-82
2024/01/03 07:39:44;;;;;;;1.23;0.70;;;;;;;9.86;79.02;151154.66;13076950;22;20014;-82
2024/01/03 07:44:46;;;;;;;0.90;0.15;;;;;;;10.01;77.79;151192.13;13075266;22;20015;-82
2024/01/03 07:49:48;;;;;;;0.85;0.40;;;;;;;9.95;79.21;151176.59;13075963;22;20060;-81
2024/01/03 07:54:49;;;;;;;0.82;0.20;;;;;;;9.99;78.04;151186.94;13045076;22;20042;-83
2024/01/03 07:59:51;;;;;;;0.88;0.30;;;;;;;10.02;77.67;151193.41;13046395;22;20018;-82
2024/01/03 08:04:53;;;;;;;0.82;0.20;;;;;;;9.84;78.62;151148.25;13049803;22;20039;-82
2024/01/03 08:09:55;;;;;;;0.93;0.10;;;;;;;10.19;75.67;151237.28;13094573;22;20018;-81
2024/01/03 08:14:56;;;;;;;0.90;0.30;;;;;;;10.08;76.07;151208.88;13070127;22;20030;-82
2024/01/03 08:19:58;;;;;;;0.38;0.20;;;;;;;10.17;74.25;151230.81;13071701;22;20011;-84
2024/01/03 08:25:01;;;;;;;0.40;0.20;;;;;;;10.21;74.55;151241.16;13106008;22;20015;-84
2024/01/03 08:30:03;;;;;;;0.28;0.20;;;;;;;10.16;75.30;151228.25;13059201;22;20468;-83
2024/01/03 08:35:05;;;;;;;0.95;0.20;;;;;;;10.31;73.83;151268.34;13051258;22;20480;-82
2024/01/03 08:40:08;;;;;;;0.85;0.30;;;;;;;10.37;74.71;151281.25;13082122;22;20045;-82
2024/01/03 08:45:10;;;;;;;0.45;0.20;;;;;;;10.38;73.31;151285.09;13077941;22;20039;-82
2024/01/03 08:50:13;;;;;;;1.33;0.22;;;;;;;10.35;73.90;151277.34;13079122;22;20038;-82
2024/01/03 08:55:15;;;;;;;0.77;0.20;;;;;;;10.43;72.83;151298.00;13052869;22;20042;-81
2024/01/03 09:00:17;;;;;;;2.90;0.30;;;;;;;10.38;73.45;151283.81;13079186;22;20026;-83
2024/01/03 09:05:20;;;;;;;1.13;0.20;;;;;;;10.47;72.51;151308.31;13051919;22;20019;-82
2024/01/03 09:10:22;;;;;;;0.60;0.30;;;;;;;10.38;73.58;151285.09;13080240;22;20016;-82
2024/01/03 09:15:23;;;;;;;0.80;0.30;;;;;;;10.49;72.60;151313.53;13055684;22;20018;-83
2024/01/03 09:20:25;;;;;;;1.10;0.30;;;;;;;10.32;73.95;151270.91;13080776;22;20022;-81
2024/01/03 09:25:27;;;;;;;0.93;0.40;;;;;;;10.41;74.26;151291.56;13092989;22;20023;-81
2024/01/03 09:30:29;;;;;;;0.80;0.20;;;;;;;10.46;73.85;151304.47;13083435;22;20018;-82
2024/01/03 09:35:30;;;;;;;0.70;0.20;;;;;;;10.58;72.95;151335.41;13093732;22;20037;-83
2024/01/03 09:40:33;;;;;;;0.50;0.17;;;;;;;10.49;73.62;151313.53;13077828;22;20015;-83
2024/01/03 09:45:35;;;;;;;0.65;0.20;;;;;;;10.59;71.92;151339.31;13077361;22;20019;-83
2024/01/03 09:50:38;;;;;;;1.67;0.30;;;;;;;10.63;72.31;151347.09;13080758;22;20019;-82
2024/01/03 09:55:40;;;;;;;1.90;0.30;;;;;;;10.68;71.08;151361.28;13088573;22;20015;-81
2024/01/03 10:00:42;;;;;;;0.38;0.20;;;;;;;10.68;70.77;151360.00;13091635;22;20022;-82
2024/01/03 10:05:43;;;;;;;0.70;0.22;;;;;;;10.75;70.25;151378.03;13081985;22;20015;-82
2024/01/03 10:10:45;;;;;;;1.17;0.35;;;;;;;10.68;70.54;151361.28;13076984;22;20083;-82
2024/01/03 10:15:48;;;;;;;1.85;0.30;;;;;;;10.82;69.94;151397.44;13081612;22;20019;-81
2024/01/03 10:20:49;;;;;;;0.95;0.40;;;;;;;10.79;69.90;151388.38;13081980;22;20022;-82
2024/01/03 10:25:55;;;;;;;0.75;0.40;;;;;;;10.82;70.25;151396.13;13057812;22;20019;-82
2024/01/03 10:30:59;;;;;;;1.20;0.35;;;;;;;10.95;69.42;151428.44;13074800;22;20026;-81
2024/01/03 10:36:09;;;;;;;4.13;0.40;;;;;;;10.99;69.45;151440.06;13050212;22;20015;-81
2024/01/03 10:41:11;;;;;;;2.13;0.38;;;;;;;11.14;68.39;151476.22;13079675;22;20018;-81
2024/01/03 10:46:15;;;;;;;1.20;0.30;;;;;;;11.15;68.59;151480.06;13084448;22;20015;-82
2024/01/03 10:51:22;;;;;;;0.68;0.30;;;;;;;11.20;67.49;151493.03;13090513;22;20019;-81
2024/01/03 10:56:23;;;;;;;;;;;;;;;11.11;68.12;151471.06;13058479;22;20054;-81
2024/01/03 11:01:34;;;;;;;1.25;0.50;;;;;;;11.19;67.52;151490.41;13054526;22;19915;-82
2024/01/03 11:07:02;;;;;;;1.33;0.38;;;;;;;11.26;67.64;151507.22;13066816;22;20106;-82
2024/01/03 11:12:07;;;;;;;1.95;0.75;;;;;;;11.51;65.93;151571.84;13079094;22;20016;-82
2024/01/03 11:17:10;;;;;;;5.20;0.75;;;;;;;11.42;67.14;151548.59;13078657;22;20090;-81
2024/01/03 11:22:11;;;;;;;0.68;0.35;;;;;;;11.42;67.15;151548.59;13079212;22;20012;-81
2024/01/03 11:27:19;;;;;;;0.85;0.28;;;;;;;11.32;68.33;151524.00;13051542;22;20026;-81
2024/01/03 11:32:29;;;;;;;0.70;0.30;;;;;;;11.54;66.82;151579.56;13076043;22;20019;-82
2024/01/03 11:37:38;;;;;;;0.73;0.38;;;;;;;11.29;67.81;151516.28;13048177;22;20023;-83
2024/01/03 11:42:40;;;;;;;0.98;0.25;;;;;;;11.40;66.89;151542.09;13074252;22;20011;-81
2024/01/03 11:47:44;;;;;;;0.40;0.20;;;;;;;11.38;66.65;151538.25;13077737;22;20015;-80
2024/01/03 11:52:48;;;;;;;0.52;0.32;;;;;;;12.04;65.46;151706.28;13050813;22;20040;-80
2024/01/03 11:57:50;;;;;;;0.32;0.10;;;;;;;12.35;64.88;151783.81;13078989;22;20326;-80
2024/01/03 12:02:54;;;;;;;1.52;0.40;;;;;;;12.25;65.30;151759.25;13054105;22;20018;-83
2024/01/03 12:07:57;;;;;;;0.45;0.20;;;;;;;11.97;66.57;151686.88;13087998;22;20462;-83
2024/01/03 12:12:59;;;;;;;0.20;0.10;;;;;;;11.91;68.07;151672.69;13057244;22;20148;-81
2024/01/03 12:18:07;;;;;;;2.78;0.10;;;;;;;11.96;66.24;151684.31;13085210;22;20026;-81
2024/01/03 12:23:14;;;;;;;1.50;0.30;;;;;;;11.85;67.77;151658.44;13057302;22;20016;-82
2024/01/03 12:28:19;;;;;;;0.30;0.10;;;;;;;12.05;66.40;151708.88;13087048;22;20030;-81
2024/01/03 12:33:24;;;;;;;0.17;0.08;;;;;;;11.75;67.11;151631.25;13094827;22;20441;-82
2024/01/03 12:38:26;;;;;;;0.20;0.05;;;;;;;11.89;66.94;151667.47;13089355;22;20019;-81
2024/01/03 12:43:29;;;;;;;1.75;0.20;;;;;;;11.72;67.72;151624.78;13094748;22;20053;-81
2024/01/03 12:48:31;;;;;;;0.03;0.03;;;;;;;11.51;68.48;151570.50;13086514;22;20026;-80
2024/01/03 12:53:35;;;;;;;0.45;0.30;;;;;;;11.35;69.34;151531.75;13093910;22;20061;-80
2024/01/03 12:58:37;;;;;;;0.93;0.20;;;;;;;11.28;69.93;151512.38;13102644;22;20065;-80
2024/01/03 13:03:38;;;;;;;1.55;0.20;;;;;;;11.24;71.82;151502.03;13081272;22;20087;-83
2024/01/03 13:08:40;;;;;;;0.52;0.10;;;;;;;11.27;74.17;151511.09;13070499;22;20015;-82
2024/01/03 13:13:42;;;;;;;0.82;0.15;;;;;;;11.09;75.20;151464.59;13101126;22;20025;-84
2024/01/03 13:18:44;;;;;;;0.43;0.15;;;;;;;10.82;78.89;151397.44;13090426;22;20373;-83
2024/01/03 13:23:46;;;;;;;0.15;0.13;;;;;;;10.73;79.37;151374.19;13095092;22;20044;-82
2024/01/03 13:28:48;;;;;;;1.17;0.30;;;;;;;10.78;78.67;151385.81;13032642;22;20051;-82
2024/01/03 13:33:49;;;;;;;0.68;0.28;;;;;;;10.59;78.57;151338.03;13052691;22;20023;-82
2024/01/03 13:38:51;;;;;;;0.47;0.15;;;;;;;10.47;77.64;151308.31;13053047;22;20054;-82
2024/01/03 13:43:56;;;;;;;0.77;0.13;;;;;;;10.55;77.42;151329.00;13053786;22;20022;-84
2024/01/03 13:48:57;;;;;;;0.40;0.10;;;;;;;10.42;76.22;151295.44;13080203;22;20528;-83
2024/01/03 13:54:00;;;;;;;0.32;0.10;;;;;;;10.41;76.50;151292.84;13053530;22;20019;-82
2024/01/03 13:59:01;;;;;;;0.45;0.15;;;;;;;10.29;78.82;151263.16;13083390;22;20022;-81
2024/01/03 14:04:03;;;;;;;0.40;0.30;;;;;;;10.39;78.92;151287.66;13091444;22;20019;-82
2024/01/03 14:09:05;;;;;;;0.57;0.20;;;;;;;10.32;80.27;151269.63;13082773;22;20015;-82
2024/01/03 14:14:08;;;;;;;1.02;0.20;;;;;;;10.29;80.27;151261.84;13055117;22;20026;-81
2024/01/03 14:19:10;;;;;;;1.08;0.20;;;;;;;10.32;80.97;151270.91;13056240;22;20034;-82
2024/01/03 14:24:13;;;;;;;0.52;0.25;;;;;;;10.30;81.86;151265.72;13079404;22;20042;-82
2024/01/03 14:29:15;;;;;;;0.57;0.20;;;;;;;10.33;81.81;151272.19;13078390;22;20011;-81
2024/01/03 14:34:16;;;;;;;1.42;0.30;;;;;;;10.43;80.99;151296.72;13055124;22;20023;-81
2024/01/03 14:39:21;;;;;;;0.82;0.20;;;;;;;10.34;80.49;151274.75;13080160;22;20113;-82
2024/01/03 14:44:23;;;;;;;0.60;0.20;;;;;;;10.46;77.99;151304.47;13082848;22;20019;-84
2024/01/03 14:49:25;;;;;;;0.28;0.20;;;;;;;10.49;77.00;151313.53;13081446;22;20016;-81
2024/01/03 14:54:27;;;;;;;0.98;0.20;;;;;;;10.76;74.27;151380.66;13087056;22;20068;-82
2024/01/03 14:59:28;;;;;;;0.20;0.20;;;;;;;10.54;74.57;151326.44;13060942;22;20011;-82
2024/01/03 15:04:30;;;;;;;0.38;0.10;;;;;;;10.48;75.24;151309.63;13088162;22;20349;-82
2024/01/03 15:09:32;;;;;;;0.20;0.10;;;;;;;10.39;74.80;151287.66;13056071;22;20015;-83
2024/01/03 15:14:36;;;;;;;1.38;0.30;;;;;;;10.47;74.70;151307.03;13086547;22;20072;-82
2024/01/03 15:19:38;;;;;;;0.65;0.20;;;;;;;10.32;75.85;151270.91;13057504;22;20016;-81
2024/01/03 15:24:44;;;;;;;0.63;0.20;;;;;;;10.20;77.05;151238.56;13050942;22;20019;-84
2024/01/03 15:29:46;;;;;;;1.27;0.30;;;;;;;10.34;75.59;151274.75;13098641;22;20000;-83
2024/01/03 15:34:48;;;;;;;0.82;0.17;;;;;;;10.27;76.46;151258.00;13058409;22;20098;-83
2024/01/03 15:39:50;;;;;;;1.35;0.47;;;;;;;10.29;75.43;151263.16;13085714;22;20072;-83
2024/01/03 15:44:52;;;;;;;0.93;0.35;;;;;;;10.33;75.83;151272.19;13087276;22;20039;-83
2024/01/03 15:49:54;;;;;;;0.93;0.20;;;;;;;10.21;76.51;151241.16;13058552;22;20034;-81
2024/01/03 15:54:55;;;;;;;0.75;0.40;;;;;;;9.98;78.63;151183.06;13077350;22;20030;-82
2024/01/03 15:59:57;;;;;;;1.15;0.30;;;;;;;10.09;78.02;151212.78;13086289;22;20177;-83
2024/01/03 16:04:59;;;;;;;0.50;0.20;;;;;;;9.97;79.88;151180.50;13090720;22;20152;-83
2024/01/03 16:10:01;;;;;;;1.10;0.40;;;;;;;10.05;78.97;151202.44;13090453;22;20015;-83
2024/01/03 16:15:03;;;;;;;0.60;0.30;;;;;;;9.89;80.38;151159.84;13083826;22;20019;-82
2024/01/03 16:20:05;;;;;;;2.38;0.30;;;;;;;9.91;79.90;151165.00;13053192;22;20015;-82
2024/01/03 16:25:10;;;;;;;1.63;0.30;;;;;;;9.86;79.82;151154.66;13052075;22;20019;-84
2024/01/03 16:30:14;;;;;;;1.60;0.40;;;;;;;9.82;80.28;151144.34;13050207;22;20018;-81
2024/01/03 16:35:16;;;;;;;1.77;0.30;;;;;;;9.86;79.54;151153.38;13046000;22;20015;-83
2024/01/03 16:40:19;;;;;;;1.95;0.57;;;;;;;9.93;78.96;151170.19;13043638;22;20334;-82
2024/01/03 16:45:22;;;;;;;1.48;0.80;;;;;;;9.95;78.47;151176.59;13045308;22;20366;-82
2024/01/03 16:50:24;;;;;;;1.10;0.45;;;;;;;9.92;78.59;151167.63;13069487;22;20038;-84
2024/01/03 16:55:26;;;;;;;1.05;0.50;;;;;;;9.95;78.08;151176.59;13073969;22;20015;-81
2024/01/03 17:00:27;;;;;;;0.82;0.22;;;;;;;9.98;78.05;151184.38;13087778;22;20019;-84
2024/01/03 17:05:32;;;;;;;0.57;0.22;;;;;;;9.89;78.45;151159.84;13046716;22;20035;-84
2024/01/03 17:10:34;;;;;;;0.85;0.55;;;;;;;9.91;78.15;151166.28;13073271;22;20015;-82
2024/01/03 17:15:40;;;;;;;2.05;0.50;;;;;;;9.99;77.76;151186.94;13073072;22;20058;-83
2024/01/03 17:20:42;;;;;;;0.70;0.35;;;;;;;9.96;78.01;151179.22;13045770;22;20011;-80
2024/01/03 17:25:43;;;;;;;2.03;0.47;;;;;;;10.02;76.91;151194.69;13045763;22;20102;-81
2024/01/03 17:30:45;;;;;;;0.93;0.38;;;;;;;9.92;78.05;151167.63;13082284;22;20454;-81
2024/01/03 17:35:47;;;;;;;0.93;0.38;;;;;;;9.91;77.48;151165.00;13079960;22;20019;-81
2024/01/03 17:40:48;;;;;;;2.58;0.40;;;;;;;10.00;76.91;151189.50;13078585;22;20015;-82
2024/01/03 17:45:50;;;;;;;0.95;0.40;;;;;;;10.10;76.49;151214.06;13054427;22;20202;-80
2024/01/03 17:50:52;;;;;;;1.50;0.40;;;;;;;9.99;76.65;151186.94;13074428;22;20012;-80
2024/01/03 17:55:54;;;;;;;2.05;0.40;;;;;;;9.94;77.33;151172.75;13045864;22;20019;-79
2024/01/03 18:00:55;;;;;;;0.85;0.20;;;;;;;9.96;76.79;151179.22;13074893;22;20050;-79
2024/01/03 18:05:57;;;;;;;1.63;0.20;;;;;;;10.06;76.35;151203.75;13074507;22;20057;-84
2024/01/03 18:11:00;;;;;;;0.38;0.20;;;;;;;9.91;77.23;151166.28;13051520;22;20011;-84
2024/01/03 18:16:01;;;;;;;1.55;0.40;;;;;;;10.01;76.54;151190.84;13081519;22;20030;-83
2024/01/03 18:21:05;;;;;;;1.55;0.38;;;;;;;10.05;76.12;151202.44;13026470;22;20078;-83
2024/01/03 18:26:07;;;;;;;0.90;0.30;;;;;;;10.10;75.82;151214.06;13088589;22;20033;-81
2024/01/03 18:31:09;;;;;;;1.30;0.30;;;;;;;9.81;77.19;151141.78;13074792;22;20035;-82
2024/01/03 18:36:12;;;;;;;1.00;0.30;;;;;;;9.93;76.64;151171.47;13023319;22;20049;-81
2024/01/03 18:41:16;;;;;;;1.10;0.28;;;;;;;9.82;76.95;151144.34;13051209;22;20027;-83
2024/01/03 18:46:18;;;;;;;0.95;0.30;;;;;;;9.92;76.69;151167.63;13078579;22;20156;-83
2024/01/03 18:51:19;;;;;;;1.20;0.28;;;;;;;9.84;76.73;151148.25;13076804;22;20015;-84
2024/01/03 18:56:21;;;;;;;1.08;0.30;;;;;;;9.82;76.56;151144.34;13050145;22;20354;-82
2024/01/03 19:01:23;;;;;;;0.57;0.20;;;;;;;9.77;76.31;151130.16;13085331;22;20342;-82
2024/01/03 19:06:26;;;;;;;1.92;0.47;;;;;;;9.80;75.40;151139.19;13074630;22;20026;-80
2024/01/03 19:11:28;;;;;;;1.50;0.40;;;;;;;9.73;75.10;151121.13;13073459;22;20019;-83
2024/01/03 19:16:36;;;;;;;0.90;0.40;;;;;;;9.62;76.23;151092.75;13078216;22;20019;-83
2024/01/03 19:21:38;;;;;;;1.30;0.40;;;;;;;9.67;75.54;151104.38;13048146;22;20453;-81
2024/01/03 19:26:40;;;;;;;2.25;0.30;;;;;;;9.70;76.60;151112.13;13074538;22;20026;-83
2024/01/03 19:31:45;;;;;;;0.60;0.32;;;;;;;9.71;76.59;151115.97;13050753;22;20022;-85
2024/01/03 19:36:48;;;;;;;0.75;0.15;;;;;;;9.72;77.62;151118.53;13076915;22;20018;-84
2024/01/03 19:41:49;;;;;;;0.28;0.15;;;;;;;9.62;77.08;151092.75;13077086;22;20049;-84
2024/01/03 19:46:51;;;;;;;0.60;0.20;;;;;;;9.71;76.49;151115.97;13080563;22;20027;-84
2024/01/03 19:51:53;;;;;;;0.95;0.22;;;;;;;9.74;75.33;151122.41;13084836;22;20033;-84
2024/01/03 19:56:55;;;;;;;0.40;0.20;;;;;;;9.77;74.89;151130.16;13063261;22;20323;-84
2024/01/03 20:01:57;;;;;;;0.50;0.20;;;;;;;9.70;74.98;151113.41;13085216;22;20349;-84
2024/01/03 20:06:59;;;;;;;0.35;0.20;;;;;;;9.80;74.32;151137.91;13053250;22;20052;-82
2024/01/03 20:12:03;;;;;;;0.20;0.20;;;;;;;9.73;74.41;151121.13;13057743;22;20015;-85
2024/01/03 20:17:04;;;;;;;0.45;0.10;;;;;;;9.67;74.65;151104.38;13080225;22;20019;-84
2024/01/03 20:22:06;;;;;;;0.52;0.13;;;;;;;9.74;74.19;151122.41;13053672;22;20011;-82
2024/01/03 20:27:08;;;;;;;0.70;0.20;;;;;;;9.64;74.96;151097.88;13053583;22;20049;-83
2024/01/03 20:32:10;;;;;;;2.53;0.20;;;;;;;9.71;74.31;151115.97;13080499;22;20037;-85
2024/01/03 20:37:12;;;;;;;0.15;0.10;;;;;;;9.64;74.90;151097.88;13086953;22;20067;-83
2024/01/03 20:42:14;;;;;;;0.35;0.20;;;;;;;9.63;74.77;151094.03;13081828;22;19995;-84
2024/01/03 20:47:15;;;;;;;0.43;0.10;;;;;;;9.73;74.32;151119.81;13085443;22;19999;-84
2024/01/03 20:52:17;;;;;;;0.13;0.10;;;;;;;9.59;75.42;151086.28;13086867;22;20051;-82
2024/01/03 20:57:20;;;;;;;0.32;0.20;;;;;;;9.72;74.58;151117.25;13112811;22;20015;-84
2024/01/03 21:02:22;;;;;;;0.10;0.10;;;;;;;9.60;75.24;151088.84;13097668;22;20089;-84
2024/01/03 21:07:23;;;;;;;0.13;0.10;;;;;;;9.58;75.62;151083.72;13095299;22;20019;-82
2024/01/03 21:12:25;;;;;;;0.73;0.10;;;;;;;9.49;76.16;151059.22;13090589;22;20016;-82
2024/01/03 21:17:27;;;;;;;0.10;0.10;;;;;;;9.43;76.63;151043.69;13060081;22;20015;-83
2024/01/03 21:22:31;;;;;;;0.57;0.13;;;;;;;9.46;76.90;151052.75;13050180;22;20015;-85
2024/01/03 21:27:33;;;;;;;0.52;0.20;;;;;;;9.46;77.09;151052.75;13085546;22;20026;-83
2024/01/03 21:32:51;;;;;;;0.50;0.10;;;;;;;9.66;76.10;151101.78;13085127;22;20018;-85
2024/01/03 21:37:53;;;;;;;1.17;0.20;;;;;;;9.71;76.01;151114.69;13057185;22;20019;-84
2024/01/03 21:42:55;;;;;;;1.13;0.10;;;;;;;9.63;76.25;151094.03;13062176;22;20015;-84
2024/01/03 21:47:57;;;;;;;0.35;0.13;;;;;;;9.55;76.93;151075.94;13054271;22;20019;-84
2024/01/03 21:52:59;;;;;;;0.20;0.10;;;;;;;9.70;76.06;151112.13;13051477;22;20011;-84
2024/01/03 21:58:01;;;;;;;0.40;0.10;;;;;;;9.80;75.24;151139.19;13079716;22;20016;-84
2024/01/03 22:03:02;;;;;;;0.00;0.00;;;;;;;9.92;74.28;151168.91;13050446;22;20070;-84
2024/01/03 22:08:05;;;;;;;0.20;0.05;;;;;;;9.88;74.00;151158.56;13050713;22;20026;-85
2024/01/03 22:13:09;;;;;;;0.00;0.00;;;;;;;9.94;74.03;151172.75;13051393;22;20019;-85
2024/01/03 22:18:11;;;;;;;1.33;0.20;;;;;;;9.77;74.45;151130.16;13078917;22;20461;-84
2024/01/03 22:23:13;;;;;;;0.77;0.25;;;;;;;9.68;75.24;151106.94;13079986;22;20034;-83
2024/01/03 22:28:15;;;;;;;0.38;0.10;;;;;;;9.65;75.41;151099.19;13072006;22;20019;-82
2024/01/03 22:33:18;;;;;;;0.10;0.10;;;;;;;9.46;76.89;151051.44;13042851;22;20007;-84
2024/01/03 22:38:20;;;;;;;0.00;0.00;;;;;;;9.35;78.63;151025.66;13067606;22;20533;-84
2024/01/03 22:43:22;;;;;;;0.28;0.10;;;;;;;9.47;79.17;151055.31;13067868;22;20015;-84
2024/01/03 22:48:23;;;;;;;0.08;0.03;;;;;;;9.28;81.30;151006.31;13074015;22;20019;-84
2024/01/03 22:53:26;;;;;;;0.15;0.00;;;;;;;9.30;81.79;151012.78;13075147;22;20084;-83
2024/01/03 22:58:28;;;;;;;0.45;0.10;;;;;;;9.24;82.17;150997.25;13072860;22;20019;-84
2024/01/03 23:03:30;;;;;;;0.00;0.00;;;;;;;9.06;82.33;150950.84;13071729;22;20015;-84
2024/01/03 23:08:31;;;;;;;0.03;0.03;;;;;;;8.97;82.60;150928.91;13038871;22;20019;-83
2024/01/03 23:13:34;;;;;;;0.00;0.00;;;;;;;8.86;81.68;150900.56;13067564;22;20011;-83
2024/01/03 23:18:35;;;;;;;0.30;0.00;;;;;;;8.73;82.96;150868.34;13067493;22;20019;-82